Time;durP1;ratioP1;P1;durP2;ratioP2;P2;SDS_P1;SDS_P2;PMS_P1;PMS_P2;Temp;Humidity;BMP_temperature;BMP_pressure;BME280_temperature;BME280_humidity;BME280_pressure;Samples;Min_cycle;Max_cycle;Signal;HPM_P1;HPM_P2
2022/05/13 00:01:27;;;;;;;29.55;14.58;;;;;;;14.09;93.80;145719.19;1789330;80;21033;-57
2022/05/13 00:03:54;;;;;;;32.03;15.23;;;;;;;14.04;94.30;145705.31;1789413;79;21088;-57
2022/05/13 00:06:20;;;;;;;29.75;14.80;;;;;;;13.98;94.67;145690.23;1789558;79;21037;-57
2022/05/13 00:08:47;;;;;;;24.90;13.75;;;;;;;13.91;95.25;145673.88;1789224;80;21045;-57
2022/05/13 00:11:14;;;;;;;25.02;12.70;;;;;;;13.85;96.04;145658.80;1797332;78;21041;-57
2022/05/13 00:13:40;;;;;;;27.17;11.88;;;;;;;13.79;96.41;145643.69;1797567;78;21032;-57
2022/05/13 00:16:07;;;;;;;35.10;12.78;;;;;;;13.73;96.64;145628.61;1797400;78;21045;-57
2022/05/13 00:18:35;;;;;;;24.10;11.60;;;;;;;13.68;96.94;145617.28;1797321;78;21001;-57
2022/05/13 00:21:02;;;;;;;25.10;11.55;;;;;;;13.60;96.41;145598.42;1797509;78;21027;-57
2022/05/13 00:23:29;;;;;;;21.87;11.45;;;;;;;13.53;96.58;145580.81;1797638;78;20993;-57
2022/05/13 00:25:56;;;;;;;21.02;11.20;;;;;;;13.44;96.81;145559.47;1797422;79;21158;-57
2022/05/13 00:28:23;;;;;;;24.10;10.35;;;;;;;13.38;97.09;145543.11;1797629;79;21004;-57
2022/05/13 00:30:50;;;;;;;26.75;11.55;;;;;;;13.33;97.30;145530.53;1797387;78;21040;-56
2022/05/13 00:33:19;;;;;;;18.62;11.10;;;;;;;13.29;97.41;145520.52;1797288;78;21036;-57
2022/05/13 00:35:46;;;;;;;20.88;9.90;;;;;;;13.24;97.46;145509.14;1797568;78;21048;-57
2022/05/13 00:38:12;;;;;;;20.80;9.30;;;;;;;13.16;97.59;145490.28;1770611;79;21025;-57
2022/05/13 00:40:43;;;;;;;20.88;9.55;;;;;;;13.10;97.93;145473.94;1797443;78;21048;-57
2022/05/13 00:43:13;;;;;;;21.75;9.68;;;;;;;13.04;97.43;145460.13;1797480;80;21517;-57
2022/05/13 00:45:41;;;;;;;20.92;10.00;;;;;;;13.01;97.55;145452.59;1797664;80;20985;-57
2022/05/13 00:48:08;;;;;;;26.70;9.03;;;;;;;12.95;97.45;145437.48;1797561;79;21052;-57
2022/05/13 00:50:37;;;;;;;18.17;7.53;;;;;;;12.90;97.01;145424.92;1797744;79;21028;-58
2022/05/13 00:53:04;;;;;;;13.88;6.83;;;;;;;12.83;96.17;145407.37;1797871;79;20993;-58
2022/05/13 00:55:41;;;;;;;16.23;7.20;;;;;;;12.78;95.50;145397.30;1797812;79;21478;-57
2022/05/13 00:58:13;;;;;;;22.15;7.67;;;;;;;12.74;94.52;145385.98;1797607;79;21045;-56
2022/05/13 01:00:41;;;;;;;12.82;6.95;;;;;;;12.72;94.81;145382.23;1797966;79;21017;-57
2022/05/13 01:03:08;;;;;;;15.05;6.58;;;;;;;12.68;94.35;145372.17;1797651;79;21580;-56
2022/05/13 01:05:36;;;;;;;13.00;6.50;;;;;;;12.65;94.40;145364.64;1797679;79;21076;-58
2022/05/13 01:08:07;;;;;;;17.00;6.60;;;;;;;12.61;94.23;145354.56;1797582;79;21506;-56
2022/05/13 01:10:37;;;;;;;13.10;5.97;;;;;;;12.56;94.46;145342.02;1798053;79;21016;-57
2022/05/13 01:13:09;;;;;;;13.68;5.90;;;;;;;12.52;94.62;145333.23;1797813;79;21247;-57
2022/05/13 01:15:40;;;;;;;18.82;6.90;;;;;;;12.49;94.72;145324.41;1798117;79;21478;-57
2022/05/13 01:18:10;;;;;;;16.02;6.95;;;;;;;12.44;94.95;145313.16;1797608;80;21080;-58
2022/05/13 01:20:48;;;;;;;14.55;5.75;;;;;;;12.38;95.18;145298.05;1797855;79;21012;-57
2022/05/13 01:23:30;;;;;;;12.85;6.28;;;;;;;12.32;95.23;145284.25;1797763;79;21518;-57
2022/05/13 01:26:02;;;;;;;22.30;6.17;;;;;;;12.26;95.59;145269.19;1797579;79;21521;-57
2022/05/13 01:28:34;;;;;;;15.93;6.37;;;;;;;12.22;95.78;145259.13;1797434;79;21607;-58
2022/05/13 01:31:05;;;;;;;17.37;6.55;;;;;;;12.19;95.86;145251.59;1797865;79;21506;-57
2022/05/13 01:33:32;;;;;;;16.73;7.33;;;;;;;12.18;96.30;145247.81;1797538;80;21001;-57
2022/05/13 01:36:01;;;;;;;20.15;8.23;;;;;;;12.13;96.47;145236.50;1797804;79;21048;-57
2022/05/13 01:38:33;;;;;;;19.25;6.35;;;;;;;12.08;96.57;145225.19;1797788;79;21564;-57
2022/05/13 01:41:01;;;;;;;20.10;8.48;;;;;;;12.05;96.46;145217.66;1797720;79;21045;-57
2022/05/13 01:43:29;;;;;;;15.00;6.30;;;;;;;12.02;95.96;145208.89;1797740;79;21071;-57
2022/05/13 01:45:57;;;;;;;20.25;6.85;;;;;;;12.01;95.63;145207.66;1797251;79;21538;-58
2022/05/13 01:48:27;;;;;;;10.48;5.87;;;;;;;12.00;95.16;145203.86;1797356;78;21464;-58
2022/05/13 01:50:54;;;;;;;13.48;5.78;;;;;;;11.99;94.29;145201.38;1797495;78;21064;-57
2022/05/13 01:53:22;;;;;;;10.40;5.28;;;;;;;11.95;94.10;145192.56;1797207;80;21045;-56
2022/05/13 01:55:49;;;;;;;13.72;5.97;;;;;;;11.91;93.27;145183.78;1797422;80;21048;-57
2022/05/13 01:58:20;;;;;;;9.10;5.00;;;;;;;11.89;92.66;145177.50;1797799;78;21041;-57
2022/05/13 02:00:48;;;;;;;8.88;4.78;;;;;;;11.88;92.07;145176.25;1797897;78;21167;-57
2022/05/13 02:06:03;;;;;;;10.05;4.80;;;;;;;11.88;90.78;145174.97;1797646;79;21040;-57
2022/05/13 02:08:31;;;;;;;10.58;5.20;;;;;;;11.88;89.69;145174.97;1797420;78;21001;-57
2022/05/13 02:10:58;;;;;;;14.15;6.00;;;;;;;11.87;89.19;145173.72;1797624;80;21228;-57
2022/05/13 02:13:25;;;;;;;12.13;5.40;;;;;;;11.85;89.01;145168.64;1797387;79;21092;-57
2022/05/13 02:15:53;;;;;;;14.00;6.58;;;;;;;11.82;88.58;145161.12;1797403;78;21530;-57
2022/05/13 02:18:21;;;;;;;13.83;6.37;;;;;;;11.81;87.58;145158.62;1797423;78;21065;-58
2022/05/13 02:20:48;;;;;;;16.17;6.40;;;;;;;11.82;87.43;145159.88;1797411;78;21025;-58
2022/05/13 02:23:23;;;;;;;13.25;6.08;;;;;;;11.82;87.09;145159.88;1797409;78;21032;-59
2022/05/13 02:25:52;;;;;;;12.13;6.33;;;;;;;11.81;86.35;145158.62;1797424;79;21032;-57
2022/05/13 02:28:18;;;;;;;12.85;5.65;;;;;;;11.81;86.01;145157.38;1770704;78;21080;-58
2022/05/13 02:30:45;;;;;;;16.57;6.25;;;;;;;11.80;85.34;145156.09;1797407;78;21065;-57
2022/05/13 02:33:13;;;;;;;14.13;6.33;;;;;;;11.80;85.58;145154.84;1797447;80;21033;-56
2022/05/13 02:35:39;;;;;;;17.50;6.97;;;;;;;11.78;85.16;145151.09;1797411;80;21052;-58
2022/05/13 02:38:06;;;;;;;14.23;6.10;;;;;;;11.78;84.94;145149.81;1797386;78;21020;-57
2022/05/13 02:43:19;;;;;;;10.63;5.58;;;;;;;11.79;84.28;145153.59;1797449;80;21041;-57
2022/05/13 02:45:46;;;;;;;12.28;5.70;;;;;;;11.82;84.07;145159.88;1791655;78;21060;-57
2022/05/13 02:48:13;;;;;;;15.38;6.53;;;;;;;11.82;84.19;145161.12;1786031;79;21052;-57
2022/05/13 02:50:39;;;;;;;13.83;7.80;;;;;;;11.83;84.24;145162.36;1785905;79;21049;-56
2022/05/13 02:53:07;;;;;;;14.58;5.67;;;;;;;11.82;84.56;145161.12;1785680;80;21471;-56
2022/05/13 02:55:34;;;;;;;15.03;5.97;;;;;;;11.83;84.79;145163.66;1785764;79;21049;-57
2022/05/13 02:58:01;;;;;;;15.23;7.80;;;;;;;11.85;85.07;145167.41;1785984;79;21041;-57
2022/05/13 03:00:28;;;;;;;13.60;6.67;;;;;;;11.87;85.19;145173.72;1785914;79;21061;-57
2022/05/13 03:02:55;;;;;;;21.35;8.20;;;;;;;11.92;85.59;145185.03;1785958;79;21037;-57
2022/05/13 03:05:22;;;;;;;24.20;10.82;;;;;;;11.94;86.11;145190.06;1785884;80;21006;-59
2022/05/13 03:07:48;;;;;;;27.82;11.88;;;;;;;11.94;86.51;145191.31;1786007;79;21009;-57
2022/05/13 03:10:14;;;;;;;27.25;12.00;;;;;;;11.97;86.42;145196.34;1785808;79;21053;-58
2022/05/13 03:12:41;;;;;;;28.80;13.55;;;;;;;11.97;86.54;145196.34;1786018;79;21538;-57
2022/05/13 03:15:10;;;;;;;28.50;13.65;;;;;;;11.99;86.90;145201.38;1785804;79;21060;-57
2022/05/13 03:17:42;;;;;;;25.37;11.93;;;;;;;11.98;87.24;145198.83;1785961;79;21033;-57
2022/05/13 03:20:17;;;;;;;34.05;12.65;;;;;;;11.98;87.81;145198.83;1785984;79;21507;-57
2022/05/13 03:22:49;;;;;;;23.45;11.57;;;;;;;12.02;88.85;145208.89;1786052;79;20977;-56
2022/05/13 03:25:16;;;;;;;27.48;11.05;;;;;;;12.05;89.63;145216.42;1786126;80;20978;-56
2022/05/13 03:27:44;;;;;;;20.32;11.10;;;;;;;12.09;90.15;145226.48;1785933;79;21025;-57
2022/05/13 03:30:15;;;;;;;26.97;10.65;;;;;;;12.13;90.66;145236.50;1785681;79;21570;-57
2022/05/13 03:32:42;;;;;;;29.60;13.48;;;;;;;12.16;91.00;145244.03;1786154;79;21017;-57
2022/05/13 03:35:12;;;;;;;21.15;11.55;;;;;;;12.22;91.40;145259.13;1785679;79;21022;-57
2022/05/13 03:37:38;;;;;;;27.32;12.13;;;;;;;12.25;91.60;145265.41;1785975;80;21475;-57
2022/05/13 03:40:06;;;;;;;25.00;12.98;;;;;;;12.31;91.73;145280.45;1785709;79;21037;-57
2022/05/13 03:42:36;;;;;;;23.10;12.35;;;;;;;12.42;91.85;145306.88;1786093;79;21002;-57
2022/05/13 03:45:06;;;;;;;28.57;12.25;;;;;;;12.49;91.86;145325.70;1786481;79;21033;-57
2022/05/13 03:47:33;;;;;;;22.73;12.68;;;;;;;12.54;91.84;145336.97;1797667;78;21052;-56
2022/05/13 03:50:00;;;;;;;21.90;11.65;;;;;;;12.59;91.74;145349.53;1797581;79;21056;-57
2022/05/13 03:52:27;;;;;;;25.65;10.68;;;;;;;12.62;91.62;145355.81;1797585;80;21056;-57
2022/05/13 03:54:53;;;;;;;21.27;10.72;;;;;;;12.66;91.66;145367.13;1797573;78;21564;-57
2022/05/13 03:57:20;;;;;;;19.45;10.35;;;;;;;12.68;91.72;145372.17;1797589;78;20989;-57
2022/05/13 03:59:47;;;;;;;22.25;11.35;;;;;;;12.74;91.81;145385.98;1797395;80;21045;-57
2022/05/13 04:02:14;;;;;;;23.95;11.90;;;;;;;12.81;91.69;145404.83;1797587;78;21455;-57
2022/05/13 04:10:11;;;;;;;24.63;11.38;;;;;;;12.89;91.41;145422.42;1797361;78;21049;-58
2022/05/13 04:18:11;;;;;;;24.55;11.65;;;;;;;12.92;90.75;145429.95;1797338;78;21088;-57
2022/05/13 04:20:38;;;;;;;23.55;10.90;;;;;;;12.97;90.90;145443.77;1797336;79;21362;-57
2022/05/13 04:23:05;;;;;;;24.43;12.53;;;;;;;13.03;90.80;145458.87;1797578;78;21177;-57
2022/05/13 04:25:32;;;;;;;22.73;11.43;;;;;;;13.13;90.63;145482.75;1797463;78;21491;-56
2022/05/13 04:27:59;;;;;;;23.27;10.05;;;;;;;13.18;90.13;145495.33;1797551;78;21071;-57
2022/05/13 04:30:26;;;;;;;25.88;9.60;;;;;;;13.20;89.97;145500.38;1797565;78;21178;-57
2022/05/13 04:32:53;;;;;;;18.23;9.23;;;;;;;13.23;89.50;145507.89;1797490;78;21001;-57
2022/05/13 04:35:20;;;;;;;18.48;7.62;;;;;;;13.29;89.11;145521.75;1797336;78;21033;-57
2022/05/13 04:37:48;;;;;;;20.08;7.83;;;;;;;13.37;88.38;145540.61;1797370;78;21538;-57
2022/05/13 04:40:15;;;;;;;15.75;7.47;;;;;;;13.43;87.96;145555.69;1797376;79;21008;-58
2022/05/13 04:42:50;;;;;;;14.05;7.05;;;;;;;13.51;87.60;145575.83;1797540;78;21021;-57
2022/05/13 04:45:24;;;;;;;18.02;7.37;;;;;;;13.59;87.05;145595.94;1796583;78;20989;-57
2022/05/13 04:48:16;;;;;;;14.60;6.70;;;;;;;13.71;86.61;145623.58;1785333;79;20993;-58
2022/05/13 04:50:58;;;;;;;12.98;6.55;;;;;;;13.82;85.95;145652.52;1785668;79;21041;-57
2022/05/13 04:53:29;;;;;;;13.72;6.65;;;;;;;13.93;85.22;145677.66;1785682;79;21526;-57
2022/05/13 04:55:57;;;;;;;15.85;6.37;;;;;;;14.02;84.58;145701.56;1786009;79;21060;-58
2022/05/13 04:58:25;;;;;;;14.38;5.90;;;;;;;14.09;84.08;145719.19;1785825;79;21009;-57
2022/05/13 05:00:55;;;;;;;11.65;5.72;;;;;;;14.17;83.17;145738.05;1785728;79;21506;-58
2022/05/13 05:03:27;;;;;;;13.13;5.42;;;;;;;14.24;82.74;145754.38;1785655;79;21001;-58
2022/05/13 05:05:54;;;;;;;14.87;4.95;;;;;;;14.29;81.55;145768.19;1785966;79;22025;-58
2022/05/13 05:08:22;;;;;;;14.78;4.55;;;;;;;14.36;80.72;145784.56;1785666;79;21586;-57
2022/05/13 05:10:49;;;;;;;8.83;4.62;;;;;;;14.41;80.38;145797.14;1785573;79;21037;-58
2022/05/13 05:13:24;;;;;;;11.65;4.45;;;;;;;14.49;80.44;145816.02;1785574;79;21093;-58
2022/05/13 05:15:51;;;;;;;14.25;3.75;;;;;;;14.62;79.90;145848.77;1784153;79;21080;-58
2022/05/13 05:18:19;;;;;;;8.85;3.62;;;;;;;14.76;78.12;145884.02;1785618;79;21081;-57
2022/05/13 05:20:46;;;;;;;9.40;3.87;;;;;;;14.87;77.05;145909.19;1785862;79;21002;-58
2022/05/13 05:23:21;;;;;;;13.00;3.98;;;;;;;14.97;76.17;145935.59;1785626;79;21076;-59
2022/05/13 05:25:48;;;;;;;9.75;3.83;;;;;;;15.11;76.37;145969.61;1785674;79;21033;-58
2022/05/13 05:28:15;;;;;;;6.83;2.90;;;;;;;15.37;74.98;146033.80;1785667;79;21041;-58
2022/05/13 05:30:44;;;;;;;8.20;4.12;;;;;;;15.72;73.56;146119.48;1785591;79;20998;-58
2022/05/13 05:33:11;;;;;;;12.30;2.80;;;;;;;16.45;70.92;146298.31;1785525;79;21002;-59
2022/05/13 05:35:39;;;;;;;8.90;2.77;;;;;;;17.92;68.02;146660.23;1785629;80;21057;-58
2022/05/13 05:38:07;;;;;;;7.22;2.52;;;;;;;19.43;61.47;147033.81;1785633;79;21001;-58
2022/05/13 05:40:37;;;;;;;6.37;2.50;;;;;;;20.54;57.92;147306.75;1785856;79;20978;-59
2022/05/13 05:43:11;;;;;;;9.98;2.87;;;;;;;21.76;53.84;147607.73;1785831;79;21021;-58
2022/05/13 05:45:40;;;;;;;5.03;2.62;;;;;;;22.96;51.43;147905.11;1785921;79;21515;-60
2022/05/13 05:48:10;;;;;;;5.30;2.50;;;;;;;23.77;48.39;148105.27;1785901;79;21092;-59
2022/05/13 05:50:37;;;;;;;6.45;2.12;;;;;;;24.48;43.70;148281.41;1793180;79;20964;-59
2022/05/13 05:53:04;;;;;;;4.58;2.00;;;;;;;24.10;41.63;148186.34;1825691;78;21026;-58
2022/05/13 05:58:19;;;;;;;5.75;1.50;;;;;;;23.51;39.79;148041.91;1826133;78;21476;-60
2022/05/13 06:00:50;;;;;;;5.10;1.90;;;;;;;23.37;39.55;148006.44;1795874;79;20993;-59
2022/05/13 06:03:18;;;;;;;6.55;2.15;;;;;;;23.78;39.37;148107.78;1824963;78;20964;-58
2022/05/13 06:05:53;;;;;;;4.53;1.72;;;;;;;24.63;37.93;148318.16;1823787;78;21019;-58
2022/05/13 06:08:20;;;;;;;3.95;1.50;;;;;;;25.12;36.18;148441.08;1795269;80;21036;-59
2022/05/13 06:10:46;;;;;;;4.15;1.20;;;;;;;25.50;35.61;148533.69;1795236;80;21523;-59
2022/05/13 06:13:14;;;;;;;3.67;1.17;;;;;;;26.31;34.88;148734.14;1794957;80;21037;-59
2022/05/13 06:15:41;;;;;;;6.08;1.30;;;;;;;26.96;32.02;148896.56;1795084;80;21036;-59
2022/05/13 06:18:08;;;;;;;2.90;0.90;;;;;;;27.22;31.38;148960.06;1783510;80;21034;-60
2022/05/13 06:20:35;;;;;;;5.60;1.05;;;;;;;27.34;31.33;148989.28;1777852;80;21010;-61
2022/05/13 06:23:01;;;;;;;6.42;1.40;;;;;;;27.98;30.85;149148.03;1817227;78;21489;-60
2022/05/13 06:25:28;;;;;;;4.97;1.52;;;;;;;28.15;30.03;149191.22;1786690;80;21059;-60
2022/05/13 06:27:55;;;;;;;4.65;1.40;;;;;;;27.97;30.43;149146.78;1816978;79;21162;-61
2022/05/13 06:30:29;;;;;;;5.00;1.27;;;;;;;27.51;29.55;149031.19;1792376;80;21062;-60
2022/05/13 06:32:58;;;;;;;4.90;1.57;;;;;;;26.91;30.13;148882.61;1785602;79;21522;-57
2022/05/13 06:35:28;;;;;;;5.55;1.62;;;;;;;26.17;31.17;148699.86;1807071;79;21543;-58
2022/05/13 06:37:55;;;;;;;5.78;1.20;;;;;;;25.62;31.68;148564.12;1807312;79;21553;-57
2022/05/13 06:40:23;;;;;;;5.10;1.37;;;;;;;25.05;32.44;148422.06;1807282;79;21091;-59
2022/05/13 06:42:52;;;;;;;4.78;1.30;;;;;;;24.36;33.22;148250.94;1805629;79;21021;-59
2022/05/13 06:45:20;;;;;;;4.45;0.90;;;;;;;24.42;33.69;148266.13;1806942;79;21576;-60
2022/05/13 06:47:47;;;;;;;5.62;1.25;;;;;;;24.11;33.17;148190.11;1775553;79;20999;-59
2022/05/13 06:50:17;;;;;;;4.15;1.40;;;;;;;23.16;34.15;147955.78;1792373;79;21543;-58
2022/05/13 06:52:45;;;;;;;4.90;1.30;;;;;;;22.72;35.18;147846.91;1792421;79;21417;-58
2022/05/13 06:55:17;;;;;;;3.02;1.17;;;;;;;22.65;35.69;147829.17;1792178;79;21032;-59
2022/05/13 06:57:44;;;;;;;5.62;1.30;;;;;;;22.63;36.13;147824.09;1792635;80;21492;-59
2022/05/13 07:00:12;;;;;;;3.33;1.22;;;;;;;22.88;36.24;147884.86;1792078;79;21508;-58
2022/05/13 07:02:40;;;;;;;3.25;1.30;;;;;;;22.98;36.28;147908.97;1792309;79;21483;-59
2022/05/13 07:05:10;;;;;;;4.87;1.50;;;;;;;23.04;36.17;147925.41;1792118;80;21062;-59
2022/05/13 07:07:37;;;;;;;3.45;1.30;;;;;;;23.46;35.98;148029.25;1762256;80;21023;-59
2022/05/13 07:10:06;;;;;;;5.95;1.20;;;;;;;24.27;34.82;148229.38;1762231;80;21012;-59
2022/05/13 07:12:32;;;;;;;5.25;1.20;;;;;;;24.79;34.13;148357.44;1762175;80;20995;-59
2022/05/13 07:15:02;;;;;;;6.53;1.35;;;;;;;25.73;32.96;148592.00;1762019;80;21078;-59
2022/05/13 07:17:30;;;;;;;2.17;0.90;;;;;;;26.42;31.73;148762.03;1762206;80;21016;-59
2022/05/13 07:19:56;;;;;;;8.05;1.22;;;;;;;26.31;30.96;148734.14;1761987;80;21067;-59
2022/05/13 07:22:23;;;;;;;3.40;1.10;;;;;;;26.11;31.53;148685.91;1761989;80;21038;-59
2022/05/13 07:24:53;;;;;;;4.00;1.22;;;;;;;26.47;31.27;148774.72;1811611;79;21018;-59
2022/05/13 07:27:19;;;;;;;4.78;1.12;;;;;;;26.83;30.20;148863.58;1811946;79;20974;-58
2022/05/13 07:29:46;;;;;;;3.12;1.32;;;;;;;26.77;29.86;148849.62;1813641;79;21416;-58
2022/05/13 07:32:12;;;;;;;4.10;1.00;;;;;;;25.83;31.15;148614.84;1813190;79;21038;-57
2022/05/13 07:34:39;;;;;;;4.85;1.35;;;;;;;24.50;32.37;148285.17;1813364;79;21029;-57
2022/05/13 07:37:07;;;;;;;6.30;1.42;;;;;;;23.53;34.12;148046.94;1812044;79;21018;-58
2022/05/13 07:42:20;;;;;;;8.78;1.75;;;;;;;22.66;35.66;147830.42;1812189;79;21475;-57
2022/05/13 07:44:48;;;;;;;7.15;1.35;;;;;;;22.44;36.33;147777.30;1806613;79;21036;-57
2022/05/13 07:47:19;;;;;;;4.62;1.40;;;;;;;22.18;36.87;147712.69;1807201;79;21044;-57
2022/05/13 07:49:46;;;;;;;6.37;1.12;;;;;;;21.66;37.94;147584.95;1807577;79;21024;-57
2022/05/13 07:52:13;;;;;;;4.28;1.10;;;;;;;21.29;38.93;147492.56;1806932;79;21608;-56
2022/05/13 07:54:40;;;;;;;5.53;1.07;;;;;;;21.31;38.59;147496.38;1805821;79;21003;-57
2022/05/13 07:57:07;;;;;;;8.73;1.65;;;;;;;21.36;38.44;147510.28;1817143;78;21063;-58
2022/05/13 08:00:24;;;;;;;2.72;1.07;;;;;;;21.47;38.40;147536.88;1786754;80;21040;-56
2022/05/13 08:02:03;;;;;;;11.48;1.67;;;;;;;21.74;38.49;147602.66;1809711;78;21037;-56
2022/05/13 08:04:30;;;;;;;7.12;1.35;;;;;;;22.04;37.66;147678.55;1799551;79;21064;-57
2022/05/13 08:06:56;;;;;;;3.02;1.20;;;;;;;21.84;37.78;147629.22;1799554;80;21170;-56
2022/05/13 08:09:23;;;;;;;5.55;1.30;;;;;;;21.68;38.48;147590.02;1799939;80;21056;-56
2022/05/13 08:11:49;;;;;;;2.52;0.93;;;;;;;21.64;38.68;147578.63;1803375;79;21041;-56
2022/05/13 08:14:16;;;;;;;4.85;1.07;;;;;;;21.92;38.66;147646.92;1803557;78;21149;-57
2022/05/13 08:16:43;;;;;;;3.45;1.15;;;;;;;21.76;38.54;147608.98;1786689;79;21084;-57
2022/05/13 08:19:10;;;;;;;5.50;1.40;;;;;;;21.84;38.70;147629.22;1786710;79;21067;-56
2022/05/13 08:21:36;;;;;;;6.20;1.20;;;;;;;22.15;37.80;147705.11;1785759;80;20987;-57
2022/05/13 08:24:04;;;;;;;3.83;0.90;;;;;;;21.97;37.59;147659.58;1785621;80;21015;-56
2022/05/13 08:26:31;;;;;;;4.53;1.10;;;;;;;21.41;38.39;147521.72;1779004;81;20973;-57
2022/05/13 08:28:57;;;;;;;4.22;0.90;;;;;;;20.75;39.00;147359.84;1777262;80;21470;-56
2022/05/13 08:31:24;;;;;;;2.98;1.10;;;;;;;20.18;40.21;147218.30;1774424;80;21064;-56
2022/05/13 08:33:51;;;;;;;2.65;0.82;;;;;;;19.92;41.24;147153.83;1781892;80;21035;-56
2022/05/13 08:36:17;;;;;;;8.40;2.10;;;;;;;20.03;41.18;147181.66;1785442;79;21011;-56
2022/05/13 08:38:45;;;;;;;4.17;0.93;;;;;;;20.03;41.56;147181.66;1780124;79;21035;-57
2022/05/13 08:41:35;;;;;;;4.17;1.32;;;;;;;19.81;41.43;147126.06;1806002;79;21615;-56
2022/05/13 08:44:07;;;;;;;4.20;1.00;;;;;;;19.84;41.83;147134.89;1787157;79;21544;-56
2022/05/13 08:46:46;;;;;;;2.62;0.90;;;;;;;20.14;41.36;147208.17;1792741;79;21105;-56
2022/05/13 08:49:36;;;;;;;6.90;1.15;;;;;;;20.39;41.07;147270.09;1788652;80;21023;-56
2022/05/13 08:55:09;;;;;;;2.05;0.90;;;;;;;21.69;38.48;147591.27;1749271;81;21039;-57
2022/05/13 08:57:41;;;;;;;1.97;0.80;;;;;;;22.35;37.66;147753.25;1760618;81;20980;-57
2022/05/13 09:00:19;;;;;;;4.87;1.10;;;;;;;22.53;35.91;147798.80;1765273;80;21120;-59
2022/05/13 09:02:54;;;;;;;3.45;1.45;;;;;;;22.74;36.15;147850.66;1777381;80;20992;-58
2022/05/13 09:05:32;;;;;;;4.70;1.00;;;;;;;23.57;35.61;148057.08;1763508;80;21048;-58
2022/05/13 09:08:00;;;;;;;4.90;0.90;;;;;;;24.18;33.83;148206.59;1765586;80;21017;-57
2022/05/13 09:10:28;;;;;;;1.72;0.70;;;;;;;23.76;33.83;148102.70;1765761;81;21082;-57
2022/05/13 09:13:00;;;;;;;4.25;0.90;;;;;;;22.90;34.14;147889.94;1759373;81;20998;-57
2022/05/13 09:15:49;;;;;;;2.95;1.00;;;;;;;22.27;34.85;147734.27;1766919;81;21043;-56
2022/05/13 09:18:41;;;;;;;4.25;0.90;;;;;;;21.80;36.16;147619.08;1751152;81;21023;-56
2022/05/13 09:21:17;;;;;;;;;;;;;;;21.26;36.75;147485.00;1759985;81;21509;-57
2022/05/13 09:23:43;;;;;;;5.47;1.10;;;;;;;21.03;37.52;147429.36;1749505;79;20145;-57
2022/05/13 09:26:18;;;;;;;4.17;0.90;;;;;;;20.91;38.26;147399.02;1765463;79;21090;-58
2022/05/13 09:29:12;;;;;;;4.60;1.05;;;;;;;21.05;38.25;147431.92;1762084;80;21079;-57
2022/05/13 09:31:47;;;;;;;3.40;0.95;;;;;;;21.15;38.39;147458.45;1768766;79;21021;-55
2022/05/13 09:34:34;;;;;;;4.58;1.85;;;;;;;21.36;38.80;147509.03;1756944;81;21054;-57
2022/05/13 09:37:11;;;;;;;7.85;2.10;;;;;;;21.34;38.98;147505.22;1765677;80;21035;-57
2022/05/13 09:39:44;;;;;;;9.50;2.30;;;;;;;21.13;39.42;147452.14;1760756;80;21075;-58
2022/05/13 09:42:27;;;;;;;6.15;1.70;;;;;;;20.71;39.61;147348.47;1751317;81;21539;-59
2022/05/13 09:45:22;;;;;;;5.92;1.90;;;;;;;20.47;39.16;147289.03;1761325;81;21045;-57
2022/05/13 09:48:18;;;;;;;6.85;2.10;;;;;;;20.57;39.69;147314.36;1769269;79;21619;-58
2022/05/13 09:50:52;;;;;;;5.03;1.87;;;;;;;20.82;39.66;147376.30;1792152;78;21003;-58
2022/05/13 09:53:27;;;;;;;4.95;1.90;;;;;;;21.12;39.52;147449.63;1778749;78;21483;-57
2022/05/13 09:55:58;;;;;;;5.17;1.75;;;;;;;21.24;38.90;147479.94;1790570;78;21098;-57
2022/05/13 09:58:38;;;;;;;3.90;1.92;;;;;;;21.30;38.70;147493.88;1786510;78;21019;-57
2022/05/13 10:01:10;;;;;;;3.98;1.75;;;;;;;21.12;38.50;147449.63;1794729;78;21066;-56
2022/05/13 10:03:39;;;;;;;5.78;1.50;;;;;;;20.75;39.30;147358.59;1804880;78;21047;-57
2022/05/13 10:06:15;;;;;;;6.03;1.67;;;;;;;20.60;39.69;147323.19;1791118;78;21061;-57
2022/05/13 10:08:54;;;;;;;5.12;1.65;;;;;;;20.66;40.03;147335.81;1804499;78;21054;-57
2022/05/13 10:14:34;;;;;;;3.00;1.17;;;;;;;20.79;38.07;147368.72;1799062;78;21490;-57
2022/05/13 10:17:24;;;;;;;7.78;1.32;;;;;;;20.59;38.60;147319.42;1798129;78;21031;-57
2022/05/13 10:19:58;;;;;;;3.83;1.65;;;;;;;20.41;38.95;147275.16;1794423;79;21069;-57
2022/05/13 10:22:29;;;;;;;4.25;1.10;;;;;;;20.44;39.35;147282.72;1798846;78;21068;-57
2022/05/13 10:25:08;;;;;;;4.92;1.67;;;;;;;20.63;39.39;147328.25;1770239;80;21497;-57
2022/05/13 10:27:57;;;;;;;4.33;1.72;;;;;;;20.68;37.63;147340.89;1756984;80;21098;-57
2022/05/13 10:30:40;;;;;;;4.35;0.93;;;;;;;20.48;37.79;147292.84;1787353;78;21071;-57
2022/05/13 10:33:43;;;;;;;5.78;1.40;;;;;;;20.37;37.31;147265.02;1758286;80;21035;-57
2022/05/13 10:36:17;;;;;;;3.35;1.20;;;;;;;20.45;36.94;147283.97;1786204;80;21024;-57
2022/05/13 10:38:49;;;;;;;4.92;1.32;;;;;;;20.56;37.77;147313.11;1792148;80;21014;-57
2022/05/13 10:41:36;;;;;;;2.10;1.17;;;;;;;20.54;38.43;147308.05;1776521;80;21516;-57
2022/05/13 10:44:15;;;;;;;3.70;1.40;;;;;;;20.49;38.11;147295.36;1785871;80;21045;-56
2022/05/13 10:46:58;;;;;;;3.45;1.37;;;;;;;20.39;37.48;147270.09;1761228;80;21071;-57
2022/05/13 10:49:36;;;;;;;4.20;1.35;;;;;;;20.35;37.37;147259.97;1822411;78;21533;-56
2022/05/13 10:52:28;;;;;;;4.45;1.20;;;;;;;20.25;38.07;147234.69;1750458;80;21599;-56
2022/05/13 10:55:06;;;;;;;5.58;1.60;;;;;;;20.37;38.20;147265.02;1767911;80;20996;-56
2022/05/13 10:58:01;;;;;;;3.40;1.40;;;;;;;20.43;37.76;147278.91;1768001;79;21077;-56
2022/05/13 11:01:01;;;;;;;5.25;1.57;;;;;;;20.48;37.44;147292.84;1790667;78;21015;-57
2022/05/13 11:03:57;;;;;;;4.90;1.60;;;;;;;20.52;37.44;147301.67;1798266;78;21028;-57
2022/05/13 11:07:08;;;;;;;5.03;1.70;;;;;;;20.59;37.63;147320.67;1791476;80;21036;-58
2022/05/13 11:09:52;;;;;;;7.35;1.90;;;;;;;20.58;37.37;147318.17;1767076;80;21559;-57
2022/05/13 11:12:33;;;;;;;3.65;1.45;;;;;;;20.37;38.04;147265.02;1794596;78;20983;-57
2022/05/13 11:15:24;;;;;;;3.47;1.65;;;;;;;20.36;38.03;147262.52;1799466;78;21054;-57
2022/05/13 11:18:13;;;;;;;3.50;1.30;;;;;;;20.50;38.08;147296.61;1792279;78;21062;-57
2022/05/13 11:20:55;;;;;;;6.83;1.80;;;;;;;20.59;37.11;147320.67;1789140;78;20999;-57
2022/05/13 11:27:05;;;;;;;7.20;1.90;;;;;;;20.60;38.02;147323.19;1789598;80;21565;-57
2022/05/13 11:29:57;;;;;;;4.62;1.62;;;;;;;20.80;37.39;147371.23;1790995;79;21014;-58
2022/05/13 11:32:46;;;;;;;4.90;1.50;;;;;;;20.78;37.02;147367.42;1786787;79;21078;-57
2022/05/13 11:35:39;;;;;;;4.85;1.60;;;;;;;20.64;37.27;147332.06;1785107;79;21063;-57
2022/05/13 11:38:38;;;;;;;4.47;1.45;;;;;;;20.63;37.18;147329.50;1789513;80;20997;-56
2022/05/13 11:41:14;;;;;;;3.87;1.82;;;;;;;20.64;37.08;147330.81;1792915;80;21098;-56
2022/05/13 11:44:03;;;;;;;5.72;1.80;;;;;;;20.77;37.43;147363.66;1784963;79;21385;-57
2022/05/13 11:46:59;;;;;;;5.72;1.80;;;;;;;20.95;37.54;147407.89;1793217;80;21021;-57
2022/05/13 11:49:43;;;;;;;5.33;1.72;;;;;;;21.03;37.07;147429.36;1785453;79;20998;-57
2022/05/13 11:52:15;;;;;;;3.02;1.20;;;;;;;21.26;36.87;147485.00;1816740;78;21556;-57
2022/05/13 11:54:44;;;;;;;6.90;1.62;;;;;;;21.37;36.25;147512.84;1793299;78;21109;-57
2022/05/13 11:57:24;;;;;;;4.70;1.20;;;;;;;21.22;36.37;147474.91;1811715;78;21531;-57
2022/05/13 12:00:34;;;;;;;3.55;1.17;;;;;;;21.09;36.54;147442.00;1768679;79;21256;-56
2022/05/13 12:03:12;;;;;;;3.35;1.55;;;;;;;21.00;36.76;147421.78;1802960;78;21509;-56
2022/05/13 12:06:02;;;;;;;7.45;1.40;;;;;;;20.86;37.28;147386.37;1814398;78;21065;-56
2022/05/13 12:08:43;;;;;;;5.37;1.27;;;;;;;21.01;36.90;147423.03;1814164;78;21019;-56
2022/05/13 12:11:32;;;;;;;5.83;1.55;;;;;;;21.30;37.18;147493.88;1786594;79;21110;-59
2022/05/13 12:14:21;;;;;;;3.50;1.10;;;;;;;21.54;36.49;147554.59;1792869;79;20983;-57
2022/05/13 12:17:21;;;;;;;3.27;1.30;;;;;;;21.65;36.13;147582.44;1795175;79;21529;-57